createdAt,value
2017-04-23T00:00:32.136Z,3.38
2017-04-23T00:01:37.689Z,3.47
2017-04-23T00:02:43.216Z,3.40
2017-04-23T00:03:48.076Z,3.50
2017-04-23T00:04:54.361Z,3.55
2017-04-23T00:05:59.072Z,3.40
2017-04-23T00:07:04.536Z,3.70
2017-04-23T00:08:10.177Z,3.37
2017-04-23T00:09:16.529Z,3.40
2017-04-23T00:10:21.405Z,3.35
2017-04-23T00:11:28.620Z,3.63
2017-04-23T00:12:33.498Z,4.00
2017-04-23T00:13:38.942Z,4.57
2017-04-23T00:14:44.541Z,4.32
2017-04-23T00:15:50.209Z,4.03
2017-04-23T00:16:56.618Z,4.15
2017-04-23T00:18:01.335Z,4.52
2017-04-23T00:19:06.196Z,4.32
2017-04-23T00:20:11.740Z,4.28
2017-04-23T00:21:18.199Z,4.45
2017-04-23T00:22:23.868Z,4.53
2017-04-23T00:23:29.512Z,4.57
2017-04-23T00:24:34.308Z,4.27
2017-04-23T00:25:39.804Z,4.48
2017-04-23T00:26:46.125Z,4.37
2017-04-23T00:27:50.951Z,3.97
2017-04-23T00:28:56.452Z,3.95
2017-04-23T00:30:02.015Z,3.72
2017-04-23T00:31:07.553Z,4.08
2017-04-23T00:32:14.107Z,4.25
2017-04-23T00:33:19.804Z,4.22
2017-04-23T00:34:25.321Z,4.18
2017-04-23T00:35:30.889Z,4.48
2017-04-23T00:36:37.337Z,3.65
2017-04-23T00:37:43.010Z,4.08
2017-04-23T00:38:48.656Z,4.25
2017-04-23T00:39:54.968Z,4.35
2017-04-23T00:41:00.621Z,3.98
2017-04-23T00:42:05.598Z,3.93
2017-04-23T00:43:11.130Z,3.88
2017-04-23T00:44:17.511Z,4.12
2017-04-23T00:45:22.172Z,3.85
2017-04-23T00:46:26.879Z,4.17
2017-04-23T00:47:33.367Z,4.02
2017-04-23T00:48:38.133Z,4.22
2017-04-23T00:49:44.652Z,4.18
2017-04-23T00:50:49.377Z,4.12
2017-04-23T00:51:54.905Z,4.23
2017-04-23T00:53:00.395Z,4.00
2017-04-23T00:54:06.089Z,4.10
2017-04-23T00:55:11.588Z,4.58
2017-04-23T00:56:16.309Z,4.23
2017-04-23T00:57:21.838Z,4.45
2017-04-23T00:58:27.453Z,4.02
2017-04-23T00:59:32.947Z,4.30
2017-04-23T01:00:38.497Z,4.60
2017-04-23T01:01:44.231Z,4.87
2017-04-23T01:02:49.701Z,4.18
2017-04-23T01:03:56.034Z,4.20
2017-04-23T01:05:00.681Z,4.55
2017-04-23T01:06:06.219Z,3.97
2017-04-23T01:07:12.396Z,4.50
2017-04-23T01:08:18.137Z,4.12
2017-04-23T01:09:23.813Z,4.93
2017-04-23T01:10:29.891Z,4.57
2017-04-23T01:11:34.621Z,4.40
2017-04-23T01:12:40.969Z,4.13
2017-04-23T01:13:45.708Z,4.17
2017-04-23T01:14:51.274Z,4.82
2017-04-23T01:15:56.654Z,4.08
2017-04-23T01:17:03.083Z,4.05
2017-04-23T01:18:07.926Z,4.62
2017-04-23T01:19:13.361Z,4.43
2017-04-23T01:20:18.920Z,5.10
2017-04-23T01:21:24.458Z,4.65
2017-04-23T01:22:29.968Z,4.67
2017-04-23T01:23:35.509Z,4.78
2017-04-23T01:24:41.195Z,4.65
2017-04-23T01:25:46.628Z,4.53
2017-04-23T01:26:52.243Z,5.12
2017-04-23T01:27:57.852Z,4.98
2017-04-23T01:29:03.466Z,4.70
2017-04-23T01:30:08.975Z,4.57
2017-04-23T01:31:14.520Z,4.23
2017-04-23T01:32:19.378Z,4.23
2017-04-23T01:33:25.042Z,4.53
2017-04-23T01:34:30.404Z,4.37
2017-04-23T01:35:36.028Z,4.47
2017-04-23T01:36:41.583Z,4.85
2017-04-23T01:37:46.306Z,4.12
2017-04-23T01:38:52.728Z,4.48
2017-04-23T01:39:57.500Z,4.20
2017-04-23T01:41:03.179Z,4.53
2017-04-23T01:42:09.398Z,4.57
2017-04-23T01:43:14.856Z,3.58
2017-04-23T01:44:19.596Z,3.82
2017-04-23T01:45:25.142Z,4.13
2017-04-23T01:46:31.622Z,4.12
2017-04-23T01:47:37.921Z,4.18
2017-04-23T01:48:43.030Z,4.27
2017-04-23T01:49:48.604Z,4.58
2017-04-23T01:50:53.989Z,4.68
2017-04-23T01:51:59.694Z,4.65
2017-04-23T01:53:06.097Z,5.05
2017-04-23T01:54:11.528Z,4.38
2017-04-23T01:55:16.277Z,4.97
2017-04-23T01:56:21.781Z,4.90
2017-04-23T01:57:28.203Z,4.30
2017-04-23T01:58:33.787Z,4.08
2017-04-23T01:59:38.565Z,5.03
2017-04-23T02:00:44.127Z,4.40
2017-04-23T02:01:49.559Z,4.95
2017-04-23T02:02:55.126Z,4.30
2017-04-23T02:04:00.809Z,4.57
2017-04-23T02:05:06.338Z,4.83
2017-04-23T02:06:11.980Z,5.35
2017-04-23T02:07:17.409Z,6.20
2017-04-23T02:08:22.826Z,4.80
2017-04-23T02:09:29.153Z,4.80
2017-04-23T02:10:33.873Z,4.60
2017-04-23T02:11:40.272Z,4.83
2017-04-23T02:12:45.217Z,4.95
2017-04-23T02:13:50.725Z,4.47
2017-04-23T02:14:56.298Z,5.37
2017-04-23T02:16:02.665Z,4.43
2017-04-23T02:17:07.442Z,4.17
2017-04-23T02:18:12.985Z,4.63
2017-04-23T02:19:18.651Z,4.78
2017-04-23T02:20:24.150Z,4.53
2017-04-23T02:21:30.357Z,5.40
2017-04-23T02:22:35.098Z,5.23
2017-04-23T02:23:40.540Z,4.58
2017-04-23T02:24:46.208Z,4.43
2017-04-23T02:25:51.712Z,4.62
2017-04-23T02:26:58.060Z,4.38
2017-04-23T02:28:02.847Z,4.08
2017-04-23T02:29:08.322Z,4.42
2017-04-23T02:30:14.788Z,4.25
2017-04-23T02:31:19.687Z,4.52
2017-04-23T02:32:25.289Z,4.35
2017-04-23T02:33:30.819Z,4.37
2017-04-23T02:34:36.386Z,4.92
2017-04-23T02:35:41.897Z,4.93
2017-04-23T02:36:47.454Z,5.07
2017-04-23T02:37:53.065Z,4.08
2017-04-23T02:38:58.751Z,4.03
2017-04-23T02:40:04.348Z,4.73
2017-04-23T02:41:10.060Z,4.70
2017-04-23T02:42:15.321Z,4.07
2017-04-23T02:43:21.697Z,3.93
2017-04-23T02:44:26.577Z,4.25
2017-04-23T02:45:32.152Z,4.60
2017-04-23T02:46:37.742Z,4.52
2017-04-23T02:47:43.404Z,4.33
2017-04-23T02:48:48.848Z,4.67
2017-04-23T02:49:55.390Z,4.77
2017-04-23T02:51:00.860Z,3.82
2017-04-23T02:52:05.702Z,4.93
2017-04-23T02:53:11.101Z,4.55
2017-04-23T02:54:18.209Z,4.75
2017-04-23T02:55:24.079Z,4.58
2017-04-23T02:56:28.755Z,3.98
2017-04-23T02:57:34.297Z,3.92
2017-04-23T02:58:40.663Z,4.57
2017-04-23T02:59:45.485Z,4.52
2017-04-23T03:00:51.173Z,3.80
2017-04-23T03:01:57.381Z,4.50
2017-04-23T03:03:02.139Z,4.42
2017-04-23T03:04:07.649Z,4.45
2017-04-23T03:05:13.205Z,3.85
2017-04-23T03:06:18.907Z,4.20
2017-04-23T03:07:24.356Z,4.17
2017-04-23T03:08:31.509Z,4.72
2017-04-23T03:09:36.565Z,4.62
2017-04-23T03:10:42.026Z,4.08
2017-04-23T03:11:47.564Z,4.75
2017-04-23T03:12:53.275Z,4.35
2017-04-23T03:13:59.455Z,4.58
2017-04-23T03:15:04.280Z,4.83
2017-04-23T03:16:10.672Z,4.52
2017-04-23T03:17:15.488Z,4.63
2017-04-23T03:18:20.147Z,4.53
2017-04-23T03:19:25.714Z,4.83
2017-04-23T03:20:32.058Z,3.85
2017-04-23T03:21:36.991Z,4.40
2017-04-23T03:22:42.695Z,4.32
2017-04-23T03:23:48.120Z,4.70
2017-04-23T03:24:54.408Z,4.75
2017-04-23T03:25:59.254Z,4.97
2017-04-23T03:27:04.984Z,4.42
2017-04-23T03:28:10.721Z,4.63
2017-04-23T03:29:16.190Z,4.25
2017-04-23T03:30:21.740Z,4.45
2017-04-23T03:31:26.645Z,4.45
2017-04-23T03:32:32.280Z,4.13
2017-04-23T03:33:37.944Z,4.70
2017-04-23T03:34:43.402Z,4.68
2017-04-23T03:35:49.792Z,4.97
2017-04-23T03:36:54.460Z,4.97
2017-04-23T03:38:00.025Z,4.80
2017-04-23T03:39:05.742Z,4.98
2017-04-23T03:40:11.944Z,4.97
2017-04-23T03:41:16.810Z,4.70
2017-04-23T03:42:21.563Z,4.20
2017-04-23T03:43:27.074Z,4.73
2017-04-23T03:44:32.753Z,5.15
2017-04-23T03:45:38.229Z,4.83
2017-04-23T03:46:43.858Z,4.22
2017-04-23T03:47:50.150Z,4.47
2017-04-23T03:48:55.084Z,4.78
2017-04-23T03:50:00.811Z,4.70
2017-04-23T03:51:06.362Z,4.57
2017-04-23T03:52:12.476Z,4.50
2017-04-23T03:53:17.170Z,4.50
2017-04-23T03:54:22.588Z,4.80
2017-04-23T03:55:27.304Z,4.40
2017-04-23T03:56:33.669Z,4.97
2017-04-23T03:57:39.288Z,4.32
2017-04-23T03:58:44.138Z,4.50
2017-04-23T03:59:49.697Z,5.27
2017-04-23T04:00:55.356Z,4.20
2017-04-23T04:02:00.875Z,5.43
2017-04-23T04:03:06.416Z,4.45
2017-04-23T04:04:12.086Z,5.45
2017-04-23T04:05:18.416Z,5.30
2017-04-23T04:06:24.033Z,4.78
2017-04-23T04:07:29.604Z,5.15
2017-04-23T04:08:35.252Z,5.82
2017-04-23T04:09:41.529Z,6.88
2017-04-23T04:10:46.329Z,5.73
2017-04-23T04:11:51.033Z,6.13
2017-04-23T04:12:56.557Z,5.83
2017-04-23T04:14:02.981Z,6.27
2017-04-23T04:15:07.893Z,5.85
2017-04-23T04:16:13.476Z,5.92
2017-04-23T04:17:20.058Z,5.92
2017-04-23T04:18:26.448Z,6.07
2017-04-23T04:19:32.033Z,5.25
2017-04-23T04:20:36.825Z,5.20
2017-04-23T04:21:43.178Z,5.68
2017-04-23T04:22:48.903Z,5.33
2017-04-23T04:23:54.490Z,6.20
2017-04-23T04:25:00.065Z,5.97
2017-04-23T04:26:06.370Z,5.22
2017-04-23T04:27:12.002Z,6.25
2017-04-23T04:28:18.304Z,5.75
2017-04-23T04:29:23.865Z,5.57
2017-04-23T04:30:29.362Z,5.22
2017-04-23T04:31:34.209Z,4.95
2017-04-23T04:32:40.481Z,5.85
2017-04-23T04:33:45.408Z,5.75
2017-04-23T04:34:51.738Z,5.07
2017-04-23T04:35:57.361Z,5.65
2017-04-23T04:37:02.193Z,5.23
2017-04-23T04:38:08.513Z,5.72
2017-04-23T04:39:13.485Z,4.90
2017-04-23T04:40:19.011Z,4.53
2017-04-23T04:41:24.576Z,5.10
2017-04-23T04:42:29.233Z,5.92
2017-04-23T04:43:33.856Z,5.85
2017-04-23T04:44:39.385Z,5.18
2017-04-23T04:45:44.933Z,5.48
2017-04-23T04:46:51.384Z,4.65
2017-04-23T04:47:56.089Z,5.50
2017-04-23T04:49:01.673Z,4.97
2017-04-23T04:50:07.288Z,5.20
2017-04-23T04:51:12.857Z,5.08
2017-04-23T04:52:18.360Z,5.28
2017-04-23T04:53:23.957Z,4.70
2017-04-23T04:54:29.461Z,5.00
2017-04-23T04:55:35.216Z,4.60
2017-04-23T04:56:40.637Z,5.32
2017-04-23T04:57:46.981Z,4.85
2017-04-23T04:58:52.628Z,4.68
2017-04-23T04:59:57.358Z,4.52
2017-04-23T05:01:03.038Z,4.68
2017-04-23T05:02:08.521Z,4.83
2017-04-23T05:03:14.159Z,4.88
2017-04-23T05:04:19.851Z,4.85
2017-04-23T05:05:25.377Z,5.32
2017-04-23T05:06:30.288Z,4.65
2017-04-23T05:07:36.511Z,5.83
2017-04-23T05:08:41.217Z,4.88
2017-04-23T05:09:46.880Z,5.20
2017-04-23T05:10:52.400Z,4.33
2017-04-23T05:11:58.894Z,4.70
2017-04-23T05:13:03.578Z,4.58
2017-04-23T05:14:09.210Z,5.10
2017-04-23T05:15:14.685Z,4.45
2017-04-23T05:16:19.393Z,5.13
2017-04-23T05:17:24.997Z,5.10
2017-04-23T05:18:30.350Z,5.57
2017-04-23T05:19:36.624Z,5.42
2017-04-23T05:20:42.240Z,4.65
2017-04-23T05:21:47.009Z,5.08
2017-04-23T05:22:52.509Z,4.98
2017-04-23T05:23:57.211Z,4.92
2017-04-23T05:25:02.778Z,5.15
2017-04-23T05:26:08.400Z,5.47
2017-04-23T05:27:14.618Z,5.17
2017-04-23T05:28:19.588Z,4.72
2017-04-23T05:29:25.026Z,4.70
2017-04-23T05:30:30.633Z,5.78
2017-04-23T05:31:36.265Z,4.90
2017-04-23T05:32:41.768Z,4.53
2017-04-23T05:33:47.477Z,5.12
2017-04-23T05:34:53.152Z,5.52
2017-04-23T05:35:58.108Z,5.83
2017-04-23T05:37:04.469Z,5.48
2017-04-23T05:38:09.323Z,5.45
2017-04-23T05:39:14.816Z,5.45
2017-04-23T05:40:20.407Z,13.93
2017-04-23T05:41:25.922Z,6.75
2017-04-23T05:42:31.542Z,5.33
2017-04-23T05:43:37.041Z,4.85
2017-04-23T05:44:43.329Z,5.95
2017-04-23T05:45:48.215Z,5.62
2017-04-23T05:46:54.677Z,4.97
2017-04-23T05:48:01.164Z,5.22
2017-04-23T05:49:05.974Z,5.15
2017-04-23T05:50:11.662Z,5.55
2017-04-23T05:51:17.168Z,5.85
2017-04-23T05:52:22.686Z,4.75
2017-04-23T05:53:28.342Z,5.07
2017-04-23T05:54:33.812Z,5.10
2017-04-23T05:55:39.364Z,5.58
2017-04-23T05:56:44.983Z,5.98
2017-04-23T05:57:50.610Z,5.25
2017-04-23T05:58:56.100Z,5.68
2017-04-23T06:00:01.765Z,5.10
2017-04-23T06:01:06.479Z,5.72
2017-04-23T06:02:11.992Z,5.88
2017-04-23T06:03:17.640Z,5.77
2017-04-23T06:04:23.264Z,6.65
2017-04-23T06:05:28.742Z,5.72
2017-04-23T06:06:34.357Z,5.85
2017-04-23T06:07:40.725Z,5.55
2017-04-23T06:08:45.383Z,5.83
2017-04-23T06:09:51.784Z,5.93
2017-04-23T06:10:56.578Z,5.02
2017-04-23T06:12:03.690Z,5.95
2017-04-23T06:13:08.508Z,6.18
2017-04-23T06:14:14.869Z,6.67
2017-04-23T06:15:19.648Z,6.78
2017-04-23T06:16:24.355Z,6.10
2017-04-23T06:17:30.232Z,5.77
2017-04-23T06:18:35.622Z,5.92
2017-04-23T06:19:41.232Z,5.77
2017-04-23T06:20:46.754Z,6.08
2017-04-23T06:21:53.101Z,6.50
2017-04-23T06:22:58.025Z,6.40
2017-04-23T06:24:03.529Z,6.27
2017-04-23T06:25:09.821Z,5.83
2017-04-23T06:26:14.497Z,5.93
2017-04-23T06:27:20.048Z,5.70
2017-04-23T06:28:25.682Z,6.07
2017-04-23T06:29:31.186Z,6.10
2017-04-23T06:30:36.790Z,6.13
2017-04-23T06:31:42.216Z,6.10
2017-04-23T06:32:47.897Z,6.08
2017-04-23T06:33:54.217Z,5.23
2017-04-23T06:34:59.031Z,5.07
2017-04-23T06:36:05.157Z,5.00
2017-04-23T06:37:10.150Z,5.30
2017-04-23T06:38:15.637Z,5.30
2017-04-23T06:39:21.305Z,5.38
2017-04-23T06:40:27.625Z,5.50
2017-04-23T06:41:33.181Z,6.12
2017-04-23T06:42:37.879Z,4.87
2017-04-23T06:43:43.353Z,5.28
2017-04-23T06:44:48.068Z,5.62
2017-04-23T06:45:53.671Z,5.87
2017-04-23T06:46:59.309Z,5.37
2017-04-23T06:48:04.064Z,4.87
2017-04-23T06:49:09.509Z,4.77
2017-04-23T06:50:15.235Z,5.12
2017-04-23T06:51:20.761Z,5.23
2017-04-23T06:52:27.198Z,5.20
2017-04-23T06:53:32.031Z,5.57
2017-04-23T06:54:37.644Z,6.03
2017-04-23T06:55:43.288Z,5.80
2017-04-23T06:56:48.729Z,6.00
2017-04-23T06:57:54.284Z,6.02
2017-04-23T06:58:59.814Z,6.08
2017-04-23T07:00:05.380Z,5.80
2017-04-23T07:01:11.073Z,6.02
2017-04-23T07:02:16.657Z,5.82
2017-04-23T07:03:23.095Z,5.30
2017-04-23T07:04:28.592Z,5.32
2017-04-23T07:05:34.067Z,5.20
2017-04-23T07:06:38.993Z,5.10
2017-04-23T07:07:45.230Z,5.18
2017-04-23T07:08:49.970Z,5.30
2017-04-23T07:09:55.608Z,5.10
2017-04-23T07:11:01.286Z,5.13
2017-04-23T07:12:07.675Z,5.52
2017-04-23T07:13:12.410Z,5.55
2017-04-23T07:14:18.536Z,5.53
2017-04-23T07:15:23.348Z,5.23
2017-04-23T07:16:29.755Z,5.62
2017-04-23T07:17:35.205Z,6.50
2017-04-23T07:18:39.897Z,5.83
2017-04-23T07:19:45.355Z,5.72
2017-04-23T07:20:51.001Z,5.30
2017-04-23T07:21:56.596Z,5.75
2017-04-23T07:23:02.092Z,4.83
2017-04-23T07:24:07.633Z,5.50
2017-04-23T07:25:13.983Z,5.67
2017-04-23T07:26:18.793Z,5.52
2017-04-23T07:27:23.393Z,5.47
2017-04-23T07:28:29.090Z,6.80
2017-04-23T07:29:34.624Z,5.62
2017-04-23T07:30:40.880Z,5.67
2017-04-23T07:31:46.405Z,5.55
2017-04-23T07:32:51.297Z,4.97
2017-04-23T07:33:57.164Z,4.67
2017-04-23T07:35:02.430Z,5.38
2017-04-23T07:36:08.847Z,4.78
2017-04-23T07:37:14.441Z,4.88
2017-04-23T07:38:20.057Z,4.48
2017-04-23T07:39:24.888Z,4.42
2017-04-23T07:40:32.370Z,4.50
2017-04-23T07:41:38.824Z,4.40
2017-04-23T07:42:43.809Z,4.32
2017-04-23T07:43:48.522Z,3.95
2017-04-23T07:44:54.971Z,4.20
2017-04-23T07:45:59.658Z,4.13
2017-04-23T07:47:05.205Z,3.68
2017-04-23T07:48:10.822Z,4.20
2017-04-23T07:49:17.121Z,4.67
2017-04-23T07:50:22.156Z,3.62
2017-04-23T07:51:27.488Z,4.62
2017-04-23T07:52:33.016Z,3.93
2017-04-23T07:53:38.617Z,4.22
2017-04-23T07:54:44.253Z,3.82
2017-04-23T07:55:50.649Z,4.88
2017-04-23T07:56:56.201Z,4.30
2017-04-23T07:58:00.944Z,4.47
2017-04-23T07:59:06.396Z,5.22
2017-04-23T08:00:11.841Z,4.90
2017-04-23T08:01:16.870Z,5.35
2017-04-23T08:02:22.306Z,5.37
2017-04-23T08:03:26.949Z,5.67
2017-04-23T08:04:32.440Z,5.02
2017-04-23T08:05:37.892Z,4.80
2017-04-23T08:06:43.557Z,4.95
2017-04-23T08:07:49.196Z,5.92
2017-04-23T08:08:53.916Z,4.75
2017-04-23T08:10:00.260Z,4.32
2017-04-23T08:11:05.125Z,4.27
2017-04-23T08:12:12.532Z,5.08
2017-04-23T08:13:18.181Z,4.37
2017-04-23T08:14:22.980Z,4.02
2017-04-23T08:15:28.429Z,4.28
2017-04-23T08:16:33.228Z,4.47
2017-04-23T08:17:39.660Z,4.40
2017-04-23T08:18:44.939Z,4.53
2017-04-23T08:19:50.034Z,3.97
2017-04-23T08:20:54.747Z,4.50
2017-04-23T08:22:00.390Z,4.27
2017-04-23T08:23:05.173Z,3.03
2017-04-23T08:24:11.310Z,3.28
2017-04-23T08:25:16.128Z,2.98
2017-04-23T08:26:21.783Z,3.28
2017-04-23T08:27:27.376Z,3.50
2017-04-23T08:28:32.825Z,3.25
2017-04-23T08:29:38.401Z,3.10
2017-04-23T08:30:44.665Z,3.90
2017-04-23T08:31:49.526Z,3.85
2017-04-23T08:32:55.087Z,3.80
2017-04-23T08:34:00.740Z,3.18
2017-04-23T08:35:06.418Z,2.85
2017-04-23T08:36:11.896Z,2.58
2017-04-23T08:37:17.465Z,2.83
2017-04-23T08:38:22.202Z,2.87
2017-04-23T08:39:29.356Z,3.20
2017-04-23T08:40:34.318Z,2.75
2017-04-23T08:41:39.942Z,2.77
2017-04-23T08:42:46.342Z,2.90
2017-04-23T08:43:52.018Z,2.90
2017-04-23T08:44:56.883Z,3.05
2017-04-23T08:46:02.547Z,3.03
2017-04-23T08:47:08.080Z,2.93
2017-04-23T08:48:14.492Z,2.90
2017-04-23T08:49:20.032Z,3.02
2017-04-23T08:50:24.944Z,3.27
2017-04-23T08:51:31.093Z,2.77
2017-04-23T08:52:35.917Z,2.85
2017-04-23T08:53:41.525Z,2.88
2017-04-23T08:54:47.060Z,2.52
2017-04-23T08:55:52.687Z,2.58
2017-04-23T08:56:58.185Z,3.02
2017-04-23T08:58:03.697Z,2.48
2017-04-23T08:59:08.518Z,2.40
2017-04-23T09:00:14.070Z,2.23
2017-04-23T09:01:19.756Z,2.92
2017-04-23T09:02:25.269Z,2.88
2017-04-23T09:03:30.860Z,3.15
2017-04-23T09:04:37.208Z,1.98
2017-04-23T09:05:42.012Z,1.38
2017-04-23T09:06:47.654Z,2.43
2017-04-23T09:07:53.164Z,2.42
2017-04-23T09:08:57.921Z,1.93
2017-04-23T09:10:03.595Z,3.82
2017-04-23T09:11:09.910Z,1.93
2017-04-23T09:12:14.704Z,2.70
2017-04-23T09:13:20.285Z,2.00
2017-04-23T09:14:25.792Z,1.72
2017-04-23T09:15:30.593Z,1.83
2017-04-23T09:16:36.154Z,1.82
2017-04-23T09:17:41.777Z,1.67
2017-04-23T09:18:47.172Z,1.87
2017-04-23T09:19:52.645Z,2.17
2017-04-23T09:20:59.036Z,2.17
2017-04-23T09:22:04.532Z,1.65
2017-04-23T09:23:09.524Z,3.13
2017-04-23T09:24:15.054Z,2.00
2017-04-23T09:25:19.725Z,2.23
2017-04-23T09:26:25.849Z,1.98
2017-04-23T09:27:31.705Z,2.57
2017-04-23T09:28:37.350Z,1.58
2017-04-23T09:29:42.241Z,1.80
2017-04-23T09:30:47.733Z,2.40
2017-04-23T09:31:52.532Z,3.53
2017-04-23T09:32:58.886Z,2.87
2017-04-23T09:34:05.338Z,2.65
2017-04-23T09:35:11.052Z,3.15
2017-04-23T09:36:15.857Z,2.68
2017-04-23T09:37:20.549Z,2.82
2017-04-23T09:38:27.637Z,2.20
2017-04-23T09:39:33.589Z,1.70
2017-04-23T09:40:39.956Z,1.75
2017-04-23T09:41:45.632Z,4.35
2017-04-23T09:42:50.434Z,2.38
2017-04-23T09:43:55.090Z,2.50
2017-04-23T09:44:59.824Z,2.77
2017-04-23T09:46:06.164Z,2.05
2017-04-23T09:47:10.857Z,2.05
2017-04-23T09:48:16.496Z,2.07
2017-04-23T09:49:22.365Z,1.93
2017-04-23T09:50:27.777Z,2.20
2017-04-23T09:51:33.233Z,1.95
2017-04-23T09:52:38.843Z,2.12
2017-04-23T09:53:45.306Z,2.08
2017-04-23T09:54:50.036Z,3.00
2017-04-23T09:55:56.389Z,2.47
2017-04-23T09:57:01.828Z,1.92
2017-04-23T09:58:07.045Z,2.47
2017-04-23T09:59:12.525Z,2.22
2017-04-23T10:00:18.182Z,2.33
2017-04-23T10:01:23.652Z,1.70
2017-04-23T10:02:29.172Z,2.27
2017-04-23T10:03:34.784Z,2.63
2017-04-23T10:04:40.380Z,2.22
2017-04-23T10:05:45.107Z,2.30
2017-04-23T10:06:49.876Z,2.32
2017-04-23T10:07:56.195Z,2.72
2017-04-23T10:09:00.937Z,2.20
2017-04-23T10:10:06.582Z,2.13
2017-04-23T10:11:13.000Z,2.57
2017-04-23T10:12:18.557Z,2.40
2017-04-23T10:13:23.454Z,2.15
2017-04-23T10:14:28.961Z,2.38
2017-04-23T10:15:33.793Z,2.18
2017-04-23T10:16:39.173Z,2.08
2017-04-23T10:17:45.657Z,2.10
2017-04-23T10:18:51.299Z,2.22
2017-04-23T10:19:56.865Z,2.25
2017-04-23T10:21:02.833Z,2.28
2017-04-23T10:22:08.253Z,2.43
2017-04-23T10:23:14.062Z,2.45
2017-04-23T10:24:19.593Z,2.08
2017-04-23T10:25:25.109Z,2.32
2017-04-23T10:26:29.869Z,2.53
2017-04-23T10:27:35.344Z,2.50
2017-04-23T10:28:40.852Z,2.50
2017-04-23T10:29:46.981Z,2.40
2017-04-23T10:30:51.700Z,2.55
2017-04-23T10:31:57.334Z,1.78
2017-04-23T10:33:02.966Z,2.40
2017-04-23T10:34:09.557Z,1.95
2017-04-23T10:35:14.874Z,1.80
2017-04-23T10:36:20.438Z,2.78
2017-04-23T10:37:27.253Z,2.02
2017-04-23T10:38:32.509Z,2.57
2017-04-23T10:39:38.254Z,2.67
2017-04-23T10:40:43.662Z,2.38
2017-04-23T10:41:49.199Z,2.28
2017-04-23T10:42:55.587Z,2.45
2017-04-23T10:44:01.065Z,2.62
2017-04-23T10:45:05.845Z,2.17
2017-04-23T10:46:11.510Z,2.30
2017-04-23T10:47:17.074Z,3.27
2017-04-23T10:48:22.738Z,2.70
2017-04-23T10:49:28.146Z,2.03
2017-04-23T10:50:33.857Z,2.47
2017-04-23T10:51:39.388Z,2.60
2017-04-23T10:52:45.855Z,2.27
2017-04-23T10:53:50.565Z,3.15
2017-04-23T10:54:56.041Z,3.28
2017-04-23T10:56:01.705Z,2.65
2017-04-23T10:57:07.303Z,3.08
2017-04-23T10:58:13.629Z,2.62
2017-04-23T10:59:18.575Z,2.80
2017-04-23T11:00:24.146Z,2.80
2017-04-23T11:01:30.537Z,2.47
2017-04-23T11:02:36.154Z,2.95
2017-04-23T11:03:42.302Z,3.00
2017-04-23T11:04:47.868Z,2.80
2017-04-23T11:05:52.731Z,2.95
2017-04-23T11:06:59.042Z,3.22
2017-04-23T11:08:04.730Z,2.90
2017-04-23T11:09:09.445Z,3.27
2017-04-23T11:10:14.152Z,3.52
2017-04-23T11:11:19.748Z,3.37
2017-04-23T11:12:25.381Z,4.05
2017-04-23T11:13:30.738Z,2.65
2017-04-23T11:14:36.313Z,5.77
2017-04-23T11:15:41.817Z,11.30
2017-04-23T11:16:47.424Z,8.15
2017-04-23T11:17:53.084Z,3.53
2017-04-23T11:18:58.720Z,2.37
2017-04-23T11:20:04.332Z,6.35
2017-04-23T11:21:09.771Z,5.85
2017-04-23T11:22:15.425Z,6.22
2017-04-23T11:23:20.910Z,3.35
2017-04-23T11:24:26.424Z,2.87
2017-04-23T11:25:31.849Z,2.73
2017-04-23T11:26:37.481Z,3.30
2017-04-23T11:27:42.960Z,2.60
2017-04-23T11:28:47.895Z,2.83
2017-04-23T11:29:53.526Z,2.43
2017-04-23T11:30:59.804Z,2.48
2017-04-23T11:32:05.496Z,3.32
2017-04-23T11:33:12.525Z,2.78
2017-04-23T11:34:18.916Z,2.67
2017-04-23T11:35:25.177Z,2.77
2017-04-23T11:36:30.745Z,2.70
2017-04-23T11:37:36.488Z,3.22
2017-04-23T11:38:41.274Z,3.05
2017-04-23T11:39:46.984Z,3.22
2017-04-23T11:40:52.525Z,3.10
2017-04-23T11:41:58.184Z,2.92
2017-04-23T11:43:03.820Z,2.77
2017-04-23T11:44:09.293Z,3.10
2017-04-23T11:45:15.760Z,3.10
2017-04-23T11:46:20.425Z,4.38
2017-04-23T11:47:26.021Z,4.08
2017-04-23T11:48:31.198Z,3.15
2017-04-23T11:49:37.064Z,3.35
2017-04-23T11:50:41.926Z,2.60
2017-04-23T11:51:48.046Z,3.28
2017-04-23T11:52:52.875Z,3.37
2017-04-23T11:53:59.848Z,2.88
2017-04-23T11:55:05.089Z,2.90
2017-04-23T11:56:10.729Z,2.83
2017-04-23T11:57:16.975Z,3.27
2017-04-23T11:58:22.465Z,2.95
2017-04-23T11:59:27.357Z,3.25
2017-04-23T12:00:32.853Z,3.52
2017-04-23T12:01:39.273Z,3.28
2017-04-23T12:02:45.669Z,3.07
2017-04-23T12:03:50.470Z,3.07
2017-04-23T12:04:56.212Z,2.77
2017-04-23T12:06:01.440Z,2.97
2017-04-23T12:07:07.158Z,3.33
2017-04-23T12:08:13.175Z,3.40
2017-04-23T12:09:18.076Z,2.70
2017-04-23T12:10:24.298Z,2.52
2017-04-23T12:11:29.881Z,2.83
2017-04-23T12:12:34.687Z,3.08
2017-04-23T12:13:40.933Z,2.67
2017-04-23T12:14:45.840Z,2.87
2017-04-23T12:15:51.319Z,3.52
2017-04-23T12:16:56.869Z,2.67
2017-04-23T12:18:01.614Z,3.52
2017-04-23T12:19:08.817Z,3.00
2017-04-23T12:20:14.023Z,2.97
2017-04-23T12:21:19.488Z,3.00
2017-04-23T12:22:24.269Z,3.38
2017-04-23T12:23:30.502Z,2.80
2017-04-23T12:24:35.178Z,3.08
2017-04-23T12:25:40.753Z,2.93
2017-04-23T12:26:46.345Z,2.87
2017-04-23T12:27:51.919Z,3.12
2017-04-23T12:28:57.505Z,2.42
2017-04-23T12:30:03.093Z,3.27
2017-04-23T12:31:08.673Z,3.22
2017-04-23T12:32:14.184Z,2.73
2017-04-23T12:33:19.840Z,2.77
2017-04-23T12:34:25.293Z,2.80
2017-04-23T12:35:30.884Z,2.87
2017-04-23T12:36:36.479Z,2.58
2017-04-23T12:37:41.234Z,3.12
2017-04-23T12:38:46.623Z,2.55
2017-04-23T12:39:53.091Z,2.80
2017-04-23T12:40:57.698Z,2.97
2017-04-23T12:42:03.161Z,2.87
2017-04-23T12:43:07.944Z,3.07
2017-04-23T12:44:13.445Z,2.92
2017-04-23T12:45:19.779Z,3.18
2017-04-23T12:46:25.328Z,3.18
2017-04-23T12:47:30.246Z,3.05
2017-04-23T12:48:35.767Z,2.47
2017-04-23T12:49:41.443Z,2.88
2017-04-23T12:50:47.897Z,3.10
2017-04-23T12:51:52.711Z,2.93
2017-04-23T12:52:59.025Z,3.00
2017-04-23T12:54:03.697Z,3.32
2017-04-23T12:55:09.175Z,2.83
2017-04-23T12:56:14.839Z,2.87
2017-04-23T12:57:20.804Z,3.55
2017-04-23T12:58:25.958Z,3.23
2017-04-23T12:59:31.479Z,3.32
2017-04-23T13:00:36.908Z,3.00
2017-04-23T13:01:42.575Z,3.15
2017-04-23T13:02:47.984Z,2.78
2017-04-23T13:03:53.561Z,3.05
2017-04-23T13:04:59.049Z,3.77
2017-04-23T13:06:04.985Z,2.83
2017-04-23T13:07:10.262Z,3.67
2017-04-23T13:08:15.794Z,3.75
2017-04-23T13:09:21.779Z,3.38
2017-04-23T13:10:26.972Z,3.32
2017-04-23T13:11:32.437Z,2.93
2017-04-23T13:12:38.660Z,3.07
2017-04-23T13:13:44.312Z,3.02
2017-04-23T13:14:50.584Z,3.05
2017-04-23T13:15:56.075Z,3.32
2017-04-23T13:17:00.846Z,3.03
2017-04-23T13:18:06.426Z,3.48
2017-04-23T13:19:11.888Z,2.80
2017-04-23T13:20:18.179Z,3.07
2017-04-23T13:21:23.744Z,3.20
2017-04-23T13:22:28.478Z,3.97
2017-04-23T13:23:34.107Z,3.28
2017-04-23T13:24:39.789Z,3.78
2017-04-23T13:25:45.452Z,3.38
2017-04-23T13:26:50.876Z,3.15
2017-04-23T13:27:55.599Z,3.30
2017-04-23T13:29:02.012Z,3.35
2017-04-23T13:30:07.588Z,3.13
2017-04-23T13:31:13.212Z,3.15
2017-04-23T13:32:18.725Z,3.27
2017-04-23T13:33:24.952Z,3.78
2017-04-23T13:34:29.855Z,4.00
2017-04-23T13:35:36.072Z,3.20
2017-04-23T13:36:41.627Z,3.13
2017-04-23T13:37:46.464Z,2.72
2017-04-23T13:38:52.601Z,3.57
2017-04-23T13:39:57.375Z,3.02
2017-04-23T13:41:02.887Z,3.60
2017-04-23T13:42:09.243Z,2.70
2017-04-23T13:43:13.946Z,3.15
2017-04-23T13:44:19.488Z,2.80
2017-04-23T13:45:25.102Z,3.05
2017-04-23T13:46:30.618Z,2.93
2017-04-23T13:47:37.099Z,3.92
2017-04-23T13:48:41.895Z,3.42
2017-04-23T13:49:47.546Z,3.12
2017-04-23T13:50:53.312Z,2.90
2017-04-23T13:51:59.323Z,3.42
2017-04-23T13:53:04.232Z,2.70
2017-04-23T13:54:09.779Z,3.57
2017-04-23T13:55:16.081Z,3.10
2017-04-23T13:56:20.976Z,3.15
2017-04-23T13:57:26.263Z,3.20
2017-04-23T13:58:31.903Z,3.17
2017-04-23T13:59:37.382Z,3.20
2017-04-23T14:00:42.795Z,3.13
2017-04-23T14:01:49.189Z,3.07
2017-04-23T14:02:54.887Z,3.13
2017-04-23T14:04:01.260Z,2.43
2017-04-23T14:05:05.921Z,3.03
2017-04-23T14:06:13.139Z,2.50
2017-04-23T14:07:19.213Z,3.47
2017-04-23T14:08:25.373Z,2.93
2017-04-23T14:09:30.677Z,3.10
2017-04-23T14:10:36.784Z,3.05
2017-04-23T14:11:41.669Z,3.02
2017-04-23T14:12:48.394Z,2.97
2017-04-23T14:13:53.688Z,3.05
2017-04-23T14:14:59.613Z,3.42
2017-04-23T14:16:04.706Z,3.23
2017-04-23T14:17:10.666Z,2.73
2017-04-23T14:18:15.854Z,2.77
2017-04-23T14:19:21.661Z,2.07
2017-04-23T14:20:27.257Z,3.13
2017-04-23T14:21:34.631Z,2.42
2017-04-23T14:22:38.250Z,2.83
2017-04-23T14:23:43.917Z,2.65
2017-04-23T14:24:50.164Z,2.50
2017-04-23T14:25:55.620Z,2.87
2017-04-23T14:27:00.296Z,3.12
2017-04-23T14:28:05.070Z,3.23
2017-04-23T14:29:11.308Z,2.90
2017-04-23T14:30:16.020Z,2.45
2017-04-23T14:31:22.326Z,3.37
2017-04-23T14:32:27.043Z,3.07